Time;durP1;ratioP1;P1;durP2;ratioP2;P2;SDS_P1;SDS_P2;PMS_P1;PMS_P2;Temp;Humidity;BMP_temperature;BMP_pressure;BME280_temperature;BME280_humidity;BME280_pressure;Samples;Min_cycle;Max_cycle;Signal;HPM_P1;HPM_P2
2023/03/07 00:01:10;;;;;;;11.70;4.87;;;;;;;3.85;77.91;95117.16;5017400;28;20684;-70
2023/03/07 00:03:37;;;;;;;12.70;5.53;;;;;;;3.82;78.14;95120.91;5016582;28;20229;-70
2023/03/07 00:06:06;;;;;;;13.83;4.90;;;;;;;3.91;77.69;95114.69;5016880;28;20733;-70
2023/03/07 00:08:33;;;;;;;12.37;5.50;;;;;;;3.81;77.67;95121.88;5017622;28;20213;-70
2023/03/07 00:11:01;;;;;;;14.33;5.53;;;;;;;3.83;78.04;95121.69;5017432;28;20205;-70
2023/03/07 00:13:29;;;;;;;16.27;5.33;;;;;;;3.91;78.17;95125.13;5016785;28;20304;-71
2023/03/07 00:16:00;;;;;;;14.13;5.13;;;;;;;3.96;78.13;95117.63;5016607;28;20256;-70
2023/03/07 00:18:26;;;;;;;17.80;6.10;;;;;;;3.84;78.46;95108.50;5017640;28;20737;-70
2023/03/07 00:20:57;;;;;;;13.90;5.30;;;;;;;3.96;78.31;95109.81;5017024;28;20292;-70
2023/03/07 00:23:24;;;;;;;15.80;5.17;;;;;;;3.77;79.36;95114.56;5017093;28;20771;-70
2023/03/07 00:25:56;;;;;;;12.37;5.03;;;;;;;3.96;78.77;95107.22;5016790;28;21030;-70
2023/03/07 00:28:23;;;;;;;12.00;5.27;;;;;;;3.76;79.72;95111.13;5017129;28;20193;-70
2023/03/07 00:30:49;;;;;;;11.63;5.00;;;;;;;3.64;80.21;95122.03;5017372;28;20206;-70
2023/03/07 00:33:17;;;;;;;14.23;5.00;;;;;;;3.77;80.58;95112.75;5017181;28;20965;-70
2023/03/07 00:35:43;;;;;;;14.40;5.67;;;;;;;3.75;80.41;95114.69;5015748;28;20599;-70
2023/03/07 00:38:10;;;;;;;18.67;4.77;;;;;;;3.65;80.64;95108.03;5016877;28;20208;-70
2023/03/07 00:40:36;;;;;;;18.97;5.53;;;;;;;3.71;80.42;95110.78;5017303;28;20213;-70
2023/03/07 00:43:03;;;;;;;20.47;6.60;;;;;;;3.82;80.80;95100.06;5016793;28;20229;-70
2023/03/07 00:45:29;;;;;;;17.73;5.87;;;;;;;3.87;81.20;95102.16;5015834;28;20576;-70
2023/03/07 00:47:56;;;;;;;11.97;4.87;;;;;;;3.83;80.53;95096.47;5017008;28;20208;-70
2023/03/07 00:50:24;;;;;;;11.43;5.03;;;;;;;3.86;81.30;95085.72;5017149;28;20302;-70
2023/03/07 00:52:50;;;;;;;15.33;5.63;;;;;;;3.80;80.93;95085.56;5016385;28;20655;-70
2023/03/07 00:55:17;;;;;;;13.97;5.40;;;;;;;3.84;80.54;95086.84;5016320;28;20580;-70
2023/03/07 00:57:43;;;;;;;18.73;5.73;;;;;;;3.68;81.24;95081.69;5017376;28;20236;-70
2023/03/07 01:00:11;;;;;;;12.33;5.17;;;;;;;3.84;81.18;95081.66;5016423;28;20213;-70
2023/03/07 01:02:38;;;;;;;14.03;5.30;;;;;;;3.61;81.47;95079.88;5016102;28;20224;-70
2023/03/07 01:05:05;;;;;;;17.30;6.37;;;;;;;3.78;81.79;95071.88;5017357;28;20205;-70
2023/03/07 01:07:32;;;;;;;18.07;6.23;;;;;;;3.89;81.41;95072.34;5016439;28;20212;-70
2023/03/07 01:09:59;;;;;;;14.60;6.37;;;;;;;3.70;81.25;95072.72;5016180;28;20202;-70
2023/03/07 01:12:25;;;;;;;17.00;5.90;;;;;;;3.67;81.50;95070.41;5017071;28;20221;-70
2023/03/07 01:14:52;;;;;;;14.47;5.93;;;;;;;3.74;81.33;95065.38;5016252;28;20216;-70
2023/03/07 01:17:18;;;;;;;17.57;7.00;;;;;;;3.73;82.40;95067.16;5016529;28;20229;-70
2023/03/07 01:19:44;;;;;;;17.27;5.50;;;;;;;3.66;82.54;95058.38;5016679;28;20205;-70
2023/03/07 01:22:11;;;;;;;17.80;6.23;;;;;;;3.72;81.47;95062.13;5016296;28;20222;-71
2023/03/07 01:24:40;;;;;;;18.27;6.83;;;;;;;3.87;81.68;95055.25;5015648;28;20213;-70
2023/03/07 01:27:06;;;;;;;14.83;6.07;;;;;;;3.62;81.99;95054.47;5016411;28;20208;-70
2023/03/07 01:29:33;;;;;;;15.97;5.93;;;;;;;3.71;81.83;95053.47;5016484;28;20244;-70
2023/03/07 01:31:59;;;;;;;19.27;6.23;;;;;;;3.75;81.66;95057.38;5015935;28;20279;-70
2023/03/07 01:34:26;;;;;;;16.47;6.27;;;;;;;3.62;81.59;95058.88;5015693;28;20209;-70
2023/03/07 01:36:52;;;;;;;16.00;6.00;;;;;;;3.56;81.98;95056.13;5016502;28;20218;-70
2023/03/07 01:39:18;;;;;;;18.87;6.47;;;;;;;3.67;80.88;95060.00;5016475;28;20209;-70
2023/03/07 01:41:47;;;;;;;15.27;6.10;;;;;;;3.77;81.27;95055.44;5016061;28;21012;-70
2023/03/07 01:44:17;;;;;;;17.53;5.77;;;;;;;3.62;81.13;95050.25;5015781;28;20198;-70
2023/03/07 01:46:47;;;;;;;15.33;5.40;;;;;;;3.70;81.18;95046.66;5016410;28;20202;-70
2023/03/07 01:49:21;;;;;;;17.13;6.07;;;;;;;3.74;81.19;95049.75;5017498;28;20212;-70
2023/03/07 01:51:52;;;;;;;16.20;6.87;;;;;;;3.71;81.23;95044.88;5020155;28;20596;-70
2023/03/07 01:54:20;;;;;;;18.20;6.50;;;;;;;3.63;80.81;95040.47;5019626;28;20204;-70
2023/03/07 01:56:48;;;;;;;20.60;6.43;;;;;;;3.62;81.19;95037.25;5020147;28;20232;-70
2023/03/07 01:59:21;;;;;;;19.20;5.77;;;;;;;3.58;81.60;95038.50;5019932;28;20216;-70
2023/03/07 02:01:49;;;;;;;13.20;5.70;;;;;;;3.51;81.18;95033.16;5020176;28;20658;-70
2023/03/07 02:04:19;;;;;;;14.43;5.87;;;;;;;3.35;82.04;95035.78;5019598;28;20197;-70
2023/03/07 02:06:45;;;;;;;18.73;5.40;;;;;;;3.21;82.48;95036.41;5019800;28;20204;-70
2023/03/07 02:09:16;;;;;;;15.53;5.43;;;;;;;3.32;82.28;95033.50;5020196;28;20206;-70
2023/03/07 02:11:44;;;;;;;11.63;4.50;;;;;;;3.29;81.85;95033.00;5019294;28;20204;-70
2023/03/07 02:14:12;;;;;;;20.07;6.00;;;;;;;3.38;82.14;95026.81;5018716;28;20685;-70
2023/03/07 02:16:39;;;;;;;15.47;5.50;;;;;;;3.23;82.43;95028.44;5019718;28;20641;-70
2023/03/07 02:19:19;;;;;;;14.40;4.80;;;;;;;3.35;81.56;95024.56;5020479;28;20208;-70
2023/03/07 02:21:53;;;;;;;13.07;5.50;;;;;;;3.37;82.30;95035.59;5019371;28;20578;-70
2023/03/07 02:24:26;;;;;;;13.97;4.67;;;;;;;3.37;83.39;95033.00;5018691;28;20216;-70
2023/03/07 02:26:54;;;;;;;13.20;4.47;;;;;;;3.32;82.40;95030.06;5019815;28;20582;-70
2023/03/07 02:29:21;;;;;;;15.83;6.33;;;;;;;3.27;82.36;95024.53;5019017;28;20209;-70
2023/03/07 02:31:48;;;;;;;11.97;4.83;;;;;;;3.35;82.01;95019.34;5019164;28;20212;-70
2023/03/07 02:34:19;;;;;;;12.33;5.80;;;;;;;3.41;81.92;95026.50;5019133;28;20639;-70
2023/03/07 02:36:46;;;;;;;16.67;6.10;;;;;;;3.24;82.26;95014.47;5018868;28;20228;-70
2023/03/07 02:39:13;;;;;;;17.43;5.23;;;;;;;3.28;81.97;95011.34;5019492;28;20202;-70
2023/03/07 02:41:40;;;;;;;16.50;6.33;;;;;;;3.17;82.04;95024.72;5018944;28;20308;-70
2023/03/07 02:44:08;;;;;;;20.97;5.90;;;;;;;3.13;82.49;95017.38;5018365;28;20208;-70
2023/03/07 02:46:34;;;;;;;13.83;5.57;;;;;;;3.13;82.41;95017.38;5019172;28;20981;-70
2023/03/07 02:49:01;;;;;;;12.63;4.60;;;;;;;3.13;82.12;95000.00;5019154;28;20212;-70
2023/03/07 02:51:27;;;;;;;13.13;5.23;;;;;;;3.08;83.21;94997.06;5019049;28;20206;-70
2023/03/07 02:53:54;;;;;;;17.73;6.50;;;;;;;3.04;82.11;94998.34;5017950;28;20225;-70
2023/03/07 02:56:20;;;;;;;13.43;5.87;;;;;;;3.04;82.34;94994.91;5019016;28;20212;-70
2023/03/07 02:58:47;;;;;;;11.30;4.97;;;;;;;3.01;82.32;94990.06;5019218;28;20216;-70
2023/03/07 03:01:15;;;;;;;10.20;4.40;;;;;;;3.13;82.13;94996.56;5017474;28;20208;-70
2023/03/07 03:03:41;;;;;;;11.90;4.97;;;;;;;3.12;81.99;94994.94;5017933;28;20221;-70
2023/03/07 03:06:09;;;;;;;16.60;5.67;;;;;;;3.22;81.69;94991.22;5018670;28;20208;-70
2023/03/07 03:08:35;;;;;;;10.83;4.60;;;;;;;3.14;81.63;94995.59;5018603;28;20198;-70
2023/03/07 03:11:01;;;;;;;15.93;5.27;;;;;;;3.18;81.90;94986.47;5018590;28;20205;-70
2023/03/07 03:13:28;;;;;;;14.03;5.23;;;;;;;3.18;81.83;94986.47;5018580;28;20234;-70
2023/03/07 03:15:56;;;;;;;12.10;4.80;;;;;;;3.11;81.71;94986.31;5017834;28;20569;-70
2023/03/07 03:18:24;;;;;;;11.27;4.93;;;;;;;3.19;81.59;94980.31;5018508;28;21283;-70
2023/03/07 03:20:51;;;;;;;7.50;2.80;;;;;;;3.03;81.69;94988.91;5019000;28;20216;-70
2023/03/07 03:23:17;;;;;;;16.87;5.10;;;;;;;2.99;82.45;94988.59;5018703;28;20259;-70
2023/03/07 03:25:44;;;;;;;11.27;4.90;;;;;;;3.02;82.30;94989.09;5016898;28;20220;-70
2023/03/07 03:28:12;;;;;;;13.83;5.10;;;;;;;3.10;82.00;94991.69;5018707;28;21409;-70
2023/03/07 03:30:39;;;;;;;10.63;4.33;;;;;;;3.10;82.21;94995.09;5019067;28;20247;-70
2023/03/07 03:33:06;;;;;;;8.17;3.87;;;;;;;3.08;81.94;94998.81;5018159;28;20308;-70
2023/03/07 03:35:33;;;;;;;16.13;4.97;;;;;;;3.18;82.05;95002.09;5016706;28;20204;-70
2023/03/07 03:38:00;;;;;;;8.03;4.63;;;;;;;3.16;81.81;94991.03;5018341;28;20246;-70
2023/03/07 03:40:26;;;;;;;9.23;3.93;;;;;;;3.17;82.21;94998.69;5017988;28;20203;-70
2023/03/07 03:42:53;;;;;;;11.07;4.80;;;;;;;3.16;82.29;94996.25;5017452;28;20716;-70
2023/03/07 03:45:19;;;;;;;11.03;4.50;;;;;;;3.12;82.00;94989.75;5017736;28;20207;-70
2023/03/07 03:47:47;;;;;;;21.03;4.90;;;;;;;3.12;82.12;94998.34;5017913;28;20203;-70
2023/03/07 03:50:13;;;;;;;12.73;4.63;;;;;;;3.15;81.90;94992.00;5017859;28;20204;-70
2023/03/07 03:52:43;;;;;;;12.83;3.60;;;;;;;3.27;81.26;94994.13;5017804;28;20227;-70
2023/03/07 03:55:10;;;;;;;13.10;4.17;;;;;;;3.14;81.67;94990.38;5014448;28;20306;-70
2023/03/07 03:57:37;;;;;;;8.10;3.70;;;;;;;3.00;82.30;94985.81;5017518;28;20738;-70
2023/03/07 04:00:07;;;;;;;15.30;5.80;;;;;;;3.12;82.15;94984.53;5017897;28;20201;-70
2023/03/07 04:02:33;;;;;;;13.87;5.13;;;;;;;2.96;82.32;94981.91;5017331;28;20564;-70
2023/03/07 04:05:00;;;;;;;10.40;4.13;;;;;;;3.01;82.13;94984.84;5016867;28;20208;-70
2023/03/07 04:07:28;;;;;;;10.50;4.37;;;;;;;3.02;82.54;94984.69;5017660;28;20212;-70
2023/03/07 04:09:56;;;;;;;12.83;5.10;;;;;;;3.03;81.98;94986.31;5017661;28;20974;-70
2023/03/07 04:12:22;;;;;;;10.20;4.37;;;;;;;2.96;82.06;94987.13;5017270;28;20224;-70
2023/03/07 04:14:49;;;;;;;11.60;3.87;;;;;;;2.97;81.59;94986.16;5016725;28;20566;-70
2023/03/07 04:17:15;;;;;;;10.53;5.17;;;;;;;2.84;82.47;94991.03;5017495;28;20232;-70
2023/03/07 04:19:42;;;;;;;14.10;4.67;;;;;;;2.76;82.77;94991.00;5016871;28;20207;-70
2023/03/07 04:22:08;;;;;;;8.80;3.33;;;;;;;2.72;82.42;94989.69;5017375;28;20234;-70
2023/03/07 04:24:35;;;;;;;11.43;4.67;;;;;;;2.73;82.55;94993.13;5016441;28;20214;-70
2023/03/07 04:27:03;;;;;;;17.27;5.00;;;;;;;2.83;82.41;94992.00;5017498;28;20582;-70
2023/03/07 04:29:31;;;;;;;7.67;3.60;;;;;;;2.79;82.10;95001.09;5017113;28;20670;-70
2023/03/07 04:31:57;;;;;;;13.60;4.50;;;;;;;2.77;82.16;94991.81;5016938;28;21162;-70
2023/03/07 04:34:23;;;;;;;10.03;4.37;;;;;;;2.82;81.84;94989.56;5016828;28;20202;-70
2023/03/07 04:36:50;;;;;;;7.27;3.33;;;;;;;2.81;81.50;94996.53;5016699;28;20199;-70
2023/03/07 04:39:16;;;;;;;9.83;4.10;;;;;;;2.93;81.77;94997.03;5016744;28;20205;-70
2023/03/07 04:41:44;;;;;;;6.53;3.27;;;;;;;2.91;81.77;94999.00;5018060;28;20232;-70
2023/03/07 04:44:12;;;;;;;15.63;5.23;;;;;;;2.93;82.04;94992.66;5016195;28;20211;-70
2023/03/07 04:46:39;;;;;;;8.87;4.07;;;;;;;2.87;81.74;94990.69;5016420;28;20204;-70
2023/03/07 04:49:05;;;;;;;15.97;5.27;;;;;;;2.87;81.61;94995.88;5017260;28;20202;-70
2023/03/07 04:51:32;;;;;;;10.80;4.40;;;;;;;2.97;80.18;94993.97;5017798;28;20214;-70
2023/03/07 04:53:58;;;;;;;10.90;4.57;;;;;;;2.83;80.79;94999.00;5015979;28;20231;-70
2023/03/07 04:56:25;;;;;;;14.80;4.97;;;;;;;2.96;80.32;94994.91;5016500;28;20207;-70
2023/03/07 04:58:52;;;;;;;9.17;4.13;;;;;;;2.83;81.43;94997.19;5016966;28;20238;-70
2023/03/07 05:01:19;;;;;;;10.23;3.73;;;;;;;2.99;79.71;94984.19;5016983;28;20203;-70
2023/03/07 05:03:46;;;;;;;9.50;4.50;;;;;;;2.83;80.37;94984.19;5015778;28;20256;-70
2023/03/07 05:06:14;;;;;;;10.10;4.33;;;;;;;2.94;80.13;94993.47;5016582;28;21008;-70
2023/03/07 05:08:41;;;;;;;7.90;3.87;;;;;;;2.86;79.64;94990.84;5016699;28;20218;-70
2023/03/07 05:11:07;;;;;;;10.63;4.07;;;;;;;2.93;79.70;94984.84;5016547;28;20207;-70
2023/03/07 05:13:34;;;;;;;18.20;5.67;;;;;;;2.99;80.09;94988.59;5016084;28;20230;-70
2023/03/07 05:16:00;;;;;;;15.43;5.83;;;;;;;3.04;80.09;94976.72;5016800;28;20569;-71
2023/03/07 05:18:28;;;;;;;16.33;5.43;;;;;;;3.03;79.32;94980.31;5016792;28;20695;-70
2023/03/07 05:20:55;;;;;;;19.93;6.47;;;;;;;3.08;79.27;94978.84;5016386;28;20205;-70
2023/03/07 05:23:22;;;;;;;16.37;5.27;;;;;;;2.99;79.39;94967.78;5016275;28;20221;-70
2023/03/07 05:25:48;;;;;;;16.20;6.00;;;;;;;3.17;79.64;94966.63;5019503;28;20221;-70
2023/03/07 05:28:16;;;;;;;27.50;7.23;;;;;;;3.09;78.93;94957.06;5020958;28;20213;-70
2023/03/07 05:30:42;;;;;;;16.07;5.83;;;;;;;3.00;79.03;94959.81;5020439;28;20237;-70
2023/03/07 05:33:08;;;;;;;49.77;11.57;;;;;;;3.08;79.03;94951.97;5020432;28;20239;-69
2023/03/07 05:35:37;;;;;;;22.80;7.33;;;;;;;3.16;79.34;94949.41;5019674;28;20204;-70
2023/03/07 05:38:04;;;;;;;25.80;8.73;;;;;;;3.05;79.35;94957.53;5020012;28;20768;-70
2023/03/07 05:40:30;;;;;;;26.90;7.30;;;;;;;3.21;79.27;94952.34;5020397;28;20201;-70
2023/03/07 05:42:57;;;;;;;24.50;8.27;;;;;;;3.13;79.31;94960.94;5020232;28;20236;-71
2023/03/07 05:45:23;;;;;;;26.27;6.60;;;;;;;3.21;78.63;94952.34;5018836;28;20216;-70
2023/03/07 05:47:50;;;;;;;20.33;7.23;;;;;;;3.12;78.24;94953.31;5020082;28;20228;-70
2023/03/07 05:50:17;;;;;;;20.93;5.10;;;;;;;3.07;78.64;94947.78;5020989;28;20216;-70
2023/03/07 05:52:45;;;;;;;15.07;6.17;;;;;;;3.20;78.37;94953.31;5019985;28;20258;-70
2023/03/07 05:55:12;;;;;;;27.03;7.10;;;;;;;2.95;78.61;94953.47;5018829;28;20692;-71
2023/03/07 05:57:38;;;;;;;27.97;8.03;;;;;;;3.01;79.38;94955.44;5020527;28;20228;-71
2023/03/07 06:00:07;;;;;;;21.77;7.47;;;;;;;3.13;78.23;94949.72;5020637;28;20692;-70
2023/03/07 06:02:33;;;;;;;23.93;6.80;;;;;;;3.00;78.96;94952.00;5019355;28;20224;-70
2023/03/07 06:05:00;;;;;;;16.73;7.07;;;;;;;2.96;79.00;94948.09;5018709;28;20204;-71
2023/03/07 06:07:26;;;;;;;16.13;5.90;;;;;;;3.08;78.54;94951.97;5020557;28;20648;-70
2023/03/07 06:09:54;;;;;;;15.63;4.73;;;;;;;3.02;79.14;94948.25;5019938;28;20202;-70
2023/03/07 06:12:21;;;;;;;15.30;5.37;;;;;;;3.02;79.77;94948.25;5019665;28;20232;-70
2023/03/07 06:14:47;;;;;;;16.67;5.37;;;;;;;3.10;78.89;94950.06;5018951;28;20219;-70
2023/03/07 06:17:14;;;;;;;16.20;5.57;;;;;;;3.08;79.72;94954.59;5019792;28;20570;-70
2023/03/07 06:19:40;;;;;;;14.03;6.27;;;;;;;3.13;79.17;94958.34;5019651;28;20232;-70
2023/03/07 06:22:07;;;;;;;15.27;5.20;;;;;;;3.02;79.27;94958.66;5019401;28;20217;-70
2023/03/07 06:24:34;;;;;;;13.27;4.70;;;;;;;3.18;79.03;94958.69;5019014;28;20208;-70
2023/03/07 06:27:02;;;;;;;20.20;5.90;;;;;;;3.28;79.99;94958.50;5019140;28;20213;-70
2023/03/07 06:29:28;;;;;;;20.97;5.70;;;;;;;3.25;79.30;94949.22;5019170;28;20222;-76
2023/03/07 06:31:55;;;;;;;13.17;5.20;;;;;;;3.25;78.93;94954.44;5019043;28;20227;-71
2023/03/07 06:34:21;;;;;;;19.70;7.33;;;;;;;3.24;78.44;94954.59;5018554;28;20569;-73
2023/03/07 06:36:48;;;;;;;12.17;4.93;;;;;;;3.19;78.47;94954.28;5019121;28;20300;-74
2023/03/07 06:39:15;;;;;;;10.00;3.90;;;;;;;3.12;78.73;94950.72;5019133;28;20928;-76
2023/03/07 06:41:42;;;;;;;14.20;5.60;;;;;;;3.26;78.11;94956.06;5019184;28;20232;-71
2023/03/07 06:44:10;;;;;;;12.13;3.63;;;;;;;3.30;77.85;94949.53;5018524;28;20202;-74
2023/03/07 06:46:36;;;;;;;20.93;5.10;;;;;;;3.32;78.17;94954.59;5019306;28;20230;-74
2023/03/07 06:49:03;;;;;;;8.83;3.47;;;;;;;3.19;78.43;94954.28;5019365;28;20197;-74
2023/03/07 06:51:29;;;;;;;18.10;4.77;;;;;;;3.37;77.87;94952.31;5018909;28;20562;-72
2023/03/07 06:53:56;;;;;;;13.53;4.50;;;;;;;3.40;77.96;94945.00;5018212;28;20235;-74
2023/03/07 06:56:23;;;;;;;14.50;4.13;;;;;;;3.27;77.38;94931.66;5019463;28;20204;-70
2023/03/07 06:58:49;;;;;;;9.03;3.43;;;;;;;3.20;77.78;94943.69;5018997;28;20231;-76
2023/03/07 07:01:18;;;;;;;6.73;3.03;;;;;;;3.29;77.62;94932.28;5019104;28;20211;-75
2023/03/07 07:03:44;;;;;;;9.87;3.97;;;;;;;3.38;77.60;94927.91;5018014;28;20223;-74
2023/03/07 07:06:11;;;;;;;21.20;4.57;;;;;;;3.30;77.42;94930.53;5018492;28;20255;-73
2023/03/07 07:08:37;;;;;;;11.40;4.53;;;;;;;3.36;77.85;94929.84;5018909;28;20198;-78
2023/03/07 07:11:04;;;;;;;16.10;4.80;;;;;;;3.40;77.83;94931.13;5019191;28;20204;-75
2023/03/07 07:13:31;;;;;;;13.13;4.37;;;;;;;3.35;77.36;94917.84;5018216;28;20213;-71
2023/03/07 07:16:02;;;;;;;3.70;2.00;;;;;;;3.51;76.56;94928.19;5018210;28;20197;-72
2023/03/07 07:18:30;;;;;;;16.93;4.40;;;;;;;3.59;77.24;94938.59;5018382;28;20233;-69
2023/03/07 07:20:57;;;;;;;9.20;3.70;;;;;;;3.56;77.15;94937.13;5018624;28;20690;-70
2023/03/07 07:23:25;;;;;;;7.27;3.40;;;;;;;3.63;76.89;94938.91;5018306;28;20217;-72
2023/03/07 07:25:51;;;;;;;8.77;3.13;;;;;;;3.61;77.28;94936.66;5017431;28;20330;-70
2023/03/07 07:28:18;;;;;;;8.17;3.00;;;;;;;3.77;76.87;94943.44;5019411;28;20205;-73
2023/03/07 07:30:44;;;;;;;12.67;4.10;;;;;;;3.74;76.82;94935.97;5018579;28;20217;-73
2023/03/07 07:33:11;;;;;;;14.87;4.67;;;;;;;3.79;76.15;94938.03;5017679;28;20225;-70
2023/03/07 07:35:38;;;;;;;11.60;4.50;;;;;;;4.00;76.31;94936.50;5017904;28;20286;-73
2023/03/07 07:38:05;;;;;;;6.57;3.10;;;;;;;4.06;75.76;94938.44;5018945;28;20216;-72
2023/03/07 07:40:31;;;;;;;12.07;4.07;;;;;;;4.12;75.26;94936.97;5018076;28;20208;-75
2023/03/07 07:42:58;;;;;;;9.67;3.50;;;;;;;4.14;74.88;94938.41;5017955;28;20232;-76
2023/03/07 07:45:24;;;;;;;12.57;5.23;;;;;;;4.23;74.91;94932.19;5018017;28;20215;-71
2023/03/07 07:47:51;;;;;;;9.27;4.23;;;;;;;4.27;74.31;94923.81;5017311;28;20200;-71
2023/03/07 07:50:19;;;;;;;9.83;3.70;;;;;;;4.41;74.40;94938.75;5018373;28;20234;-73
2023/03/07 07:52:47;;;;;;;12.07;4.83;;;;;;;4.33;73.66;94941.41;5018015;28;20229;-72
2023/03/07 07:55:15;;;;;;;12.20;4.90;;;;;;;4.26;73.84;94937.88;5017413;28;20212;-74
2023/03/07 07:57:42;;;;;;;16.07;5.10;;;;;;;4.43;74.36;94934.19;5017594;28;20202;-70
2023/03/07 08:00:11;;;;;;;12.80;4.67;;;;;;;4.48;73.16;94920.63;5017763;28;20271;-79
2023/03/07 08:02:38;;;;;;;11.60;3.43;;;;;;;4.59;73.43;94920.25;5016742;28;20231;-74
2023/03/07 08:05:09;;;;;;;11.77;4.33;;;;;;;4.38;73.11;94926.06;5015533;28;20703;-72
2023/03/07 08:07:35;;;;;;;9.27;4.10;;;;;;;4.39;72.79;94922.47;5016269;28;20198;-72
2023/03/07 08:10:03;;;;;;;10.77;3.97;;;;;;;4.43;73.18;94915.09;5016780;28;20205;-70
2023/03/07 08:12:31;;;;;;;12.00;4.67;;;;;;;4.40;72.76;94907.63;5016704;28;20485;-72
2023/03/07 08:14:57;;;;;;;9.50;4.17;;;;;;;4.25;73.18;94917.16;5016050;28;20208;-72
2023/03/07 08:17:24;;;;;;;16.70;5.33;;;;;;;4.54;72.38;94917.34;5017348;28;20674;-75
2023/03/07 08:19:50;;;;;;;4.07;2.23;;;;;;;4.57;72.33;94914.38;5017081;28;20228;-72
2023/03/07 08:22:18;;;;;;;10.23;3.13;;;;;;;4.62;72.21;94914.66;5016800;28;20241;-74
2023/03/07 08:24:45;;;;;;;10.50;4.47;;;;;;;4.77;71.88;94911.13;5016566;28;20670;-75
2023/03/07 08:27:13;;;;;;;11.13;3.53;;;;;;;4.80;71.24;94920.41;5017308;28;20200;-76
2023/03/07 08:29:39;;;;;;;9.93;4.03;;;;;;;5.00;70.80;94912.75;5018022;28;20216;-72
2023/03/07 08:32:06;;;;;;;9.80;3.63;;;;;;;4.86;70.97;94913.53;5017496;28;20229;-72
2023/03/07 08:34:33;;;;;;;11.80;3.67;;;;;;;4.82;71.33;94913.22;5016298;28;20205;-71
2023/03/07 08:36:59;;;;;;;11.90;4.27;;;;;;;4.60;71.76;94914.03;5017347;28;20994;-74
2023/03/07 08:39:26;;;;;;;9.60;4.20;;;;;;;4.84;71.29;94919.91;5018303;28;20232;-71
2023/03/07 08:41:54;;;;;;;13.33;5.10;;;;;;;5.13;71.15;94904.31;5017203;28;20198;-75
2023/03/07 08:44:21;;;;;;;14.93;4.90;;;;;;;5.34;69.93;94900.06;5015565;28;20680;-71
2023/03/07 08:46:48;;;;;;;8.27;3.90;;;;;;;5.29;69.59;94907.59;5017302;28;20204;-73
2023/03/07 08:49:14;;;;;;;6.00;2.87;;;;;;;5.16;69.11;94907.41;5017088;28;20194;-69
2023/03/07 08:51:41;;;;;;;11.50;3.90;;;;;;;5.20;69.79;94911.28;5016599;28;20206;-72
2023/03/07 08:54:07;;;;;;;7.93;3.07;;;;;;;5.04;68.84;94910.59;5016684;28;20202;-72
2023/03/07 08:56:34;;;;;;;9.57;3.53;;;;;;;5.24;68.90;94893.47;5016638;28;20201;-72
2023/03/07 08:59:00;;;;;;;9.00;3.67;;;;;;;5.32;68.36;94902.03;5015799;28;20225;-71
2023/03/07 09:01:28;;;;;;;13.47;5.20;;;;;;;5.58;68.08;94887.56;5016977;28;20695;-71
2023/03/07 09:03:55;;;;;;;9.90;4.67;;;;;;;5.29;68.04;94894.53;5015310;28;20228;-72
2023/03/07 09:06:22;;;;;;;7.30;3.50;;;;;;;5.42;67.91;94886.91;5015851;28;20201;-71
2023/03/07 09:08:49;;;;;;;13.57;4.80;;;;;;;5.59;67.34;94877.94;5016013;28;20584;-68
2023/03/07 09:11:16;;;;;;;8.00;3.23;;;;;;;5.75;67.28;94878.56;5016007;28;20662;-72
2023/03/07 09:13:43;;;;;;;9.30;4.37;;;;;;;5.43;67.30;94881.53;5014960;28;20222;-71
2023/03/07 09:16:10;;;;;;;5.70;2.77;;;;;;;5.67;67.48;94870.00;5015952;28;20504;-72
2023/03/07 09:18:38;;;;;;;16.10;4.77;;;;;;;5.99;66.77;94869.66;5015853;28;20205;-69
2023/03/07 09:21:05;;;;;;;12.97;4.30;;;;;;;6.00;66.58;94871.28;5016444;28;20590;-70
2023/03/07 09:23:32;;;;;;;11.47;5.20;;;;;;;6.05;65.11;94867.13;5015473;28;20731;-72
2023/03/07 09:25:59;;;;;;;9.67;4.37;;;;;;;6.04;64.90;94868.91;5014735;28;20446;-71
2023/03/07 09:28:26;;;;;;;13.70;5.47;;;;;;;5.91;65.45;94864.53;5015463;28;21148;-73
2023/03/07 09:30:52;;;;;;;12.47;4.93;;;;;;;5.93;65.30;94872.97;5015100;28;20205;-70
2023/03/07 09:33:19;;;;;;;8.43;3.80;;;;;;;5.84;64.40;94868.84;5014954;28;20241;-71
2023/03/07 09:35:47;;;;;;;13.67;4.87;;;;;;;5.82;64.24;94868.22;5015475;28;20206;-70
2023/03/07 09:38:14;;;;;;;10.30;4.07;;;;;;;5.99;64.02;94867.03;5015410;28;20220;-69
2023/03/07 09:40:40;;;;;;;9.63;3.97;;;;;;;5.85;64.49;94862.63;5015902;28;20230;-72
2023/03/07 09:43:13;;;;;;;7.63;3.13;;;;;;;5.79;65.22;94856.34;5015927;28;20607;-67
2023/03/07 09:45:59;;;;;;;11.13;4.20;;;;;;;5.83;65.54;94857.59;5015003;28;20211;-71
2023/03/07 09:49:03;;;;;;;10.53;4.27;;;;;;;5.96;65.70;94856.91;5014862;28;20228;-72
2023/03/07 09:51:37;;;;;;;11.80;4.07;;;;;;;6.17;64.00;94858.63;5016952;28;20201;-72
2023/03/07 09:54:09;;;;;;;12.70;4.53;;;;;;;6.64;62.42;94855.50;5015167;28;20198;-68
2023/03/07 09:56:42;;;;;;;9.10;3.83;;;;;;;6.27;61.49;94859.13;5015726;28;20202;-71
2023/03/07 09:59:16;;;;;;;13.87;3.83;;;;;;;6.47;62.52;94848.91;5016482;28;20595;-70
2023/03/07 10:01:44;;;;;;;14.30;5.10;;;;;;;6.56;62.23;94842.53;5015993;28;20239;-72
2023/03/07 10:04:20;;;;;;;6.60;3.17;;;;;;;6.10;62.58;94847.25;5015106;28;20202;-69
2023/03/07 10:06:52;;;;;;;5.97;2.90;;;;;;;5.99;63.28;94833.84;5016017;28;20205;-68
2023/03/07 10:09:21;;;;;;;12.37;4.23;;;;;;;6.02;63.05;94840.53;5015695;28;20218;-70
2023/03/07 10:12:07;;;;;;;8.30;3.50;;;;;;;6.24;63.26;94841.19;5019097;28;20202;-71
2023/03/07 10:14:47;;;;;;;10.83;4.03;;;;;;;6.25;62.18;94819.28;5019609;28;20206;-72
2023/03/07 10:17:26;;;;;;;6.73;3.57;;;;;;;6.21;63.41;94825.88;5019710;28;20201;-69
2023/03/07 10:19:54;;;;;;;12.97;5.60;;;;;;;6.19;62.88;94825.25;5019473;28;20221;-70
2023/03/07 10:22:29;;;;;;;14.90;4.03;;;;;;;6.25;62.41;94813.22;5020069;28;20221;-70
2023/03/07 10:25:13;;;;;;;13.70;4.43;;;;;;;6.16;62.10;94809.94;5018682;28;20214;-68
2023/03/07 10:27:40;;;;;;;10.03;4.13;;;;;;;6.15;62.38;94803.06;5018791;28;20211;-72
2023/03/07 10:30:14;;;;;;;6.20;2.83;;;;;;;6.34;61.18;94806.88;5019191;28;20213;-70
2023/03/07 10:32:44;;;;;;;16.57;5.23;;;;;;;6.61;61.14;94798.31;5019116;28;20251;-71
2023/03/07 10:35:19;;;;;;;8.23;3.13;;;;;;;6.56;59.53;94793.63;5018904;28;20275;-72
2023/03/07 10:37:50;;;;;;;10.33;3.97;;;;;;;6.45;59.71;94793.31;5019535;28;20735;-68
2023/03/07 10:40:30;;;;;;;9.50;4.00;;;;;;;6.67;59.04;94791.31;5019337;28;20229;-68
2023/03/07 10:42:59;;;;;;;8.20;3.67;;;;;;;6.95;58.05;94778.25;5019259;28;20230;-73
2023/03/07 10:45:28;;;;;;;7.57;3.30;;;;;;;6.98;57.38;94783.13;5018225;28;20209;-69
2023/03/07 10:47:55;;;;;;;8.97;3.90;;;;;;;6.88;57.58;94790.47;5018579;28;20902;-70
2023/03/07 10:50:30;;;;;;;8.10;3.30;;;;;;;7.12;56.98;94776.97;5017607;28;20522;-73
2023/03/07 10:53:01;;;;;;;7.33;2.73;;;;;;;7.17;56.07;94774.59;5018369;28;20427;-72
2023/03/07 10:55:37;;;;;;;7.90;3.17;;;;;;;7.56;54.90;94786.91;5017166;28;20481;-72
2023/03/07 10:58:28;;;;;;;7.83;3.87;;;;;;;7.21;56.56;94775.81;5018019;28;20206;-69
2023/03/07 11:01:02;;;;;;;8.03;3.70;;;;;;;7.19;56.12;94777.81;5007273;28;20631;-74
2023/03/07 11:03:32;;;;;;;8.60;3.33;;;;;;;7.17;56.55;94774.59;5017732;28;20232;-71
2023/03/07 11:05:59;;;;;;;12.03;4.23;;;;;;;7.24;56.37;94778.84;5017716;28;20205;-70
2023/03/07 11:08:32;;;;;;;6.63;3.67;;;;;;;7.52;55.05;94766.53;5018127;28;20709;-71
2023/03/07 11:11:00;;;;;;;10.53;4.23;;;;;;;7.53;55.28;94771.56;5017758;28;20579;-74
2023/03/07 11:13:27;;;;;;;10.47;3.50;;;;;;;7.28;55.43;94761.78;5017498;28;20218;-72
2023/03/07 11:16:09;;;;;;;9.27;3.63;;;;;;;7.76;56.71;94760.78;5017702;28;20217;-72
2023/03/07 11:18:39;;;;;;;10.70;4.73;;;;;;;8.12;56.00;94756.88;5019359;28;20568;-73
2023/03/07 11:21:05;;;;;;;9.93;4.13;;;;;;;8.24;53.83;94744.84;5017786;28;20690;-71
2023/03/07 11:23:33;;;;;;;9.63;4.40;;;;;;;7.77;55.37;94742.25;5017485;28;20229;-75
2023/03/07 11:26:15;;;;;;;8.03;2.90;;;;;;;7.83;54.79;94740.66;5018427;28;20206;-71
2023/03/07 11:28:41;;;;;;;11.03;4.67;;;;;;;7.65;54.49;94738.56;5018450;28;20233;-70
2023/03/07 11:31:19;;;;;;;12.00;3.40;;;;;;;7.59;54.89;94739.34;5018349;28;20560;-72
2023/03/07 11:33:50;;;;;;;7.53;3.73;;;;;;;7.27;55.56;94728.72;5017342;28;20230;-78
2023/03/07 11:36:22;;;;;;;8.17;3.70;;;;;;;7.56;55.32;94728.44;5018488;28;20551;-72
2023/03/07 11:39:00;;;;;;;12.47;4.37;;;;;;;7.44;56.58;94720.31;5018137;28;20210;-74
2023/03/07 11:41:29;;;;;;;11.43;4.60;;;;;;;7.41;56.60;94733.03;5018286;28;20264;-72